createdAt,value
2023-07-27T00:03:30.589Z,99321.19
2023-07-27T00:05:59.767Z,99308.09
2023-07-27T00:08:27.714Z,99311.59
2023-07-27T00:10:55.817Z,99309.78
2023-07-27T00:13:22.638Z,99298.22
2023-07-27T00:15:50.355Z,99309.28
2023-07-27T00:18:18.227Z,99296.84
2023-07-27T00:20:45.950Z,99293.34
2023-07-27T00:23:15.178Z,99286.53
2023-07-27T00:25:43.008Z,99282.84
2023-07-27T00:28:10.777Z,99283.47
2023-07-27T00:30:38.723Z,99283.38
2023-07-27T00:33:06.797Z,99283.47
2023-07-27T00:35:34.628Z,99284.31
2023-07-27T00:38:02.629Z,99270.53
2023-07-27T00:40:31.881Z,99276.59
2023-07-27T00:42:59.845Z,99269.59
2023-07-27T00:45:28.303Z,99266.16
2023-07-27T00:47:56.266Z,99268.13
2023-07-27T00:50:24.193Z,99264.53
2023-07-27T00:52:51.892Z,99258.59
2023-07-27T00:55:20.087Z,99251.72
2023-07-27T00:57:49.305Z,99258.03
2023-07-27T01:00:17.243Z,99251.63
2023-07-27T01:02:45.173Z,99248.03
2023-07-27T01:05:12.918Z,99245.56
2023-07-27T01:07:42.649Z,99244.44
2023-07-27T01:10:10.982Z,99244.38
2023-07-27T01:12:41.010Z,99218.81
2023-07-27T01:15:11.765Z,99198.91
2023-07-27T01:17:42.152Z,99240.94
2023-07-27T01:20:18.040Z,99197.19
2023-07-27T01:22:58.770Z,99226.03
2023-07-27T01:25:39.499Z,99218.06
2023-07-27T01:28:12.985Z,99218.31
2023-07-27T01:30:53.014Z,99236.53
2023-07-27T01:33:24.924Z,99218.31
2023-07-27T01:35:57.477Z,99208.00
2023-07-27T01:38:25.186Z,99157.72
2023-07-27T01:40:53.345Z,99205.81
2023-07-27T01:43:21.089Z,99195.69
2023-07-27T01:45:50.310Z,99182.72
2023-07-27T01:48:18.020Z,99189.28
2023-07-27T01:50:45.909Z,99205.63
2023-07-27T01:53:13.644Z,99204.69
2023-07-27T01:55:41.636Z,99172.22
2023-07-27T01:58:09.360Z,99193.28
2023-07-27T02:00:37.278Z,99194.06
2023-07-27T02:03:06.778Z,99203.75
2023-07-27T02:05:34.592Z,99205.31
2023-07-27T02:08:02.548Z,99213.97
2023-07-27T02:10:30.363Z,99203.94
2023-07-27T02:13:00.011Z,99188.88
2023-07-27T02:15:29.504Z,99190.59
2023-07-27T02:18:01.162Z,99185.19
2023-07-27T02:20:32.153Z,99173.81
2023-07-27T02:23:00.153Z,99178.06
2023-07-27T02:25:27.883Z,99183.22
2023-07-27T02:27:55.786Z,99182.38
2023-07-27T02:30:23.671Z,99180.47
2023-07-27T02:32:51.512Z,99177.81
2023-07-27T02:35:19.371Z,99167.38
2023-07-27T02:37:48.852Z,99179.63
2023-07-27T02:40:16.780Z,99174.13
2023-07-27T02:42:44.608Z,99173.94
2023-07-27T02:45:13.119Z,99174.06
2023-07-27T02:47:40.998Z,99173.09
2023-07-27T02:50:10.186Z,99175.84
2023-07-27T02:52:38.058Z,99175.91
2023-07-27T02:55:07.733Z,99179.63
2023-07-27T02:57:35.592Z,99170.09
2023-07-27T03:00:03.587Z,99175.25
2023-07-27T03:02:31.547Z,99175.41
2023-07-27T03:05:00.016Z,99165.91
2023-07-27T03:07:27.763Z,99166.94
2023-07-27T03:09:55.693Z,99168.84
2023-07-27T03:12:24.878Z,99169.00
2023-07-27T03:14:52.720Z,99142.41
2023-07-27T03:17:20.744Z,99162.28
2023-07-27T03:19:48.655Z,99164.34
2023-07-27T03:22:16.439Z,99154.84
2023-07-27T03:24:44.461Z,99161.25
2023-07-27T03:27:12.227Z,99157.81
2023-07-27T03:29:41.351Z,99152.94
2023-07-27T03:32:09.732Z,99160.16
2023-07-27T03:34:37.470Z,99142.84
2023-07-27T03:37:05.974Z,99152.56
2023-07-27T03:39:34.118Z,99142.38
2023-07-27T03:42:02.170Z,99137.41
2023-07-27T03:44:30.019Z,99141.19
2023-07-27T03:46:59.406Z,99132.53
2023-07-27T03:49:27.164Z,99132.78
2023-07-27T03:51:55.005Z,99120.16
2023-07-27T03:54:22.783Z,99115.09
2023-07-27T03:56:50.644Z,99115.94
2023-07-27T03:59:18.377Z,99109.94
2023-07-27T04:01:46.119Z,99105.50
2023-07-27T04:04:15.438Z,99106.44
2023-07-27T04:06:43.423Z,99098.47
2023-07-27T04:09:11.454Z,99093.47
2023-07-27T04:11:39.268Z,99098.00
2023-07-27T04:14:07.149Z,99085.25
2023-07-27T04:16:35.120Z,99084.03
2023-07-27T04:19:03.192Z,99084.09
2023-07-27T04:21:32.249Z,99079.03
2023-07-27T04:24:00.205Z,99086.31
2023-07-27T04:26:27.996Z,99077.78
2023-07-27T04:28:55.953Z,99082.31
2023-07-27T04:31:23.684Z,99079.91
2023-07-27T04:33:51.494Z,99070.41
2023-07-27T04:36:19.243Z,99082.03
2023-07-27T04:38:48.887Z,99079.44
2023-07-27T04:41:16.636Z,99079.38
2023-07-27T04:43:44.484Z,99082.97
2023-07-27T04:46:12.247Z,99067.38
2023-07-27T04:48:40.129Z,99071.84
2023-07-27T04:51:07.872Z,99060.22
2023-07-27T04:53:35.903Z,99063.66
2023-07-27T04:56:05.250Z,99052.97
2023-07-27T04:58:33.136Z,99044.50
2023-07-27T05:01:01.275Z,99044.16
2023-07-27T05:03:29.199Z,99044.53
2023-07-27T05:05:57.030Z,99028.91
2023-07-27T05:08:24.989Z,99018.59
2023-07-27T05:10:52.775Z,99012.44
2023-07-27T05:13:22.112Z,99000.53
2023-07-27T05:15:50.326Z,98995.31
2023-07-27T05:18:18.260Z,98984.09
2023-07-27T05:20:45.976Z,99005.31
2023-07-27T05:23:14.865Z,98984.59
2023-07-27T05:25:42.570Z,98963.63
2023-07-27T05:28:10.449Z,98965.50
2023-07-27T05:30:39.556Z,98965.88
2023-07-27T05:33:08.957Z,98976.47
2023-07-27T05:35:36.695Z,98960.81
2023-07-27T05:38:04.752Z,98963.50
2023-07-27T05:40:32.530Z,98966.94
2023-07-27T05:43:00.368Z,98937.88
2023-07-27T05:45:28.104Z,98944.44
2023-07-27T05:47:57.386Z,98929.03
2023-07-27T05:50:25.644Z,98942.03
2023-07-27T05:52:53.465Z,98935.16
2023-07-27T05:55:21.306Z,98930.88
2023-07-27T05:57:58.133Z,98924.16
2023-07-27T06:00:29.662Z,98946.31
2023-07-27T06:05:26.606Z,98916.25
2023-07-27T06:07:54.504Z,98920.66
2023-07-27T06:10:22.304Z,98909.16
2023-07-27T06:12:50.035Z,98892.19
2023-07-27T06:15:17.956Z,98908.72
2023-07-27T06:17:46.096Z,98886.19
2023-07-27T06:20:14.030Z,98901.66
2023-07-27T06:22:43.167Z,98906.00
2023-07-27T06:25:11.286Z,98911.78
2023-07-27T06:27:39.087Z,98892.31
2023-07-27T06:30:09.637Z,98886.84
2023-07-27T06:32:37.765Z,98900.63
2023-07-27T06:35:06.394Z,98878.50
2023-07-27T06:37:34.181Z,98873.16
2023-07-27T06:40:43.748Z,98897.75
2023-07-27T06:43:11.511Z,98863.44
2023-07-27T06:45:39.621Z,98892.31
2023-07-27T06:48:08.047Z,98882.66
2023-07-27T06:50:35.859Z,98881.72
2023-07-27T06:53:04.831Z,98893.94
2023-07-27T06:55:34.004Z,98887.97
2023-07-27T06:58:02.558Z,98871.16
2023-07-27T07:00:30.428Z,98875.66
2023-07-27T07:02:58.429Z,98880.84
2023-07-27T07:05:26.373Z,98865.91
2023-07-27T07:07:54.193Z,98863.22
2023-07-27T07:10:22.726Z,98859.16
2023-07-27T07:12:52.104Z,98882.03
2023-07-27T07:15:20.028Z,98858.16
2023-07-27T07:17:48.981Z,98864.88
2023-07-27T07:20:17.017Z,98859.41
2023-07-27T07:22:44.770Z,98868.97
2023-07-27T07:25:12.709Z,98867.63
2023-07-27T07:27:40.536Z,98866.75
2023-07-27T07:30:10.854Z,98854.94
2023-07-27T07:32:38.697Z,98841.56
2023-07-27T07:35:07.533Z,98854.47
2023-07-27T07:37:36.364Z,98851.97
2023-07-27T07:40:04.727Z,98840.38
2023-07-27T07:42:33.361Z,98839.22
2023-07-27T07:45:01.071Z,98838.50
2023-07-27T07:47:30.593Z,98844.50
2023-07-27T07:49:59.451Z,98841.75
2023-07-27T07:52:27.403Z,98835.94
2023-07-27T07:54:55.108Z,98855.53
2023-07-27T07:57:22.935Z,98839.66
2023-07-27T07:59:50.676Z,98832.47
2023-07-27T08:02:18.508Z,98833.88
2023-07-27T08:04:47.716Z,98833.47
2023-07-27T08:07:15.447Z,98835.75
2023-07-27T08:09:43.460Z,98831.34
2023-07-27T08:12:11.226Z,98839.09
2023-07-27T08:14:39.135Z,98832.97
2023-07-27T08:17:08.019Z,98818.28
2023-07-27T08:19:37.023Z,98816.75
2023-07-27T08:22:07.262Z,98805.72
2023-07-27T08:24:35.195Z,98814.94
2023-07-27T08:27:05.588Z,98819.81
2023-07-27T08:29:35.261Z,98808.44
2023-07-27T08:32:03.573Z,98788.38
2023-07-27T08:34:31.381Z,98817.25
2023-07-27T08:36:59.210Z,98802.81
2023-07-27T08:39:28.995Z,98815.88
2023-07-27T08:41:56.885Z,98809.38
2023-07-27T08:44:24.723Z,98812.72
2023-07-27T08:46:52.611Z,98813.31
2023-07-27T08:49:20.703Z,98768.13
2023-07-27T08:51:48.953Z,98796.47
2023-07-27T08:54:16.947Z,98799.19
2023-07-27T08:56:46.396Z,98800.41
2023-07-27T08:59:14.276Z,98800.31
2023-07-27T09:01:42.314Z,98801.00
2023-07-27T09:04:10.176Z,98801.84
2023-07-27T09:06:47.547Z,98815.78
2023-07-27T09:09:16.571Z,98808.16
2023-07-27T09:11:47.171Z,98807.06
2023-07-27T09:14:15.258Z,98804.50
2023-07-27T09:16:59.237Z,98808.00
2023-07-27T09:19:28.600Z,98805.44
2023-07-27T09:21:58.615Z,98802.59
2023-07-27T09:24:26.823Z,98785.25
2023-07-27T09:26:56.211Z,98806.63
2023-07-27T09:29:24.129Z,98810.56
2023-07-27T09:31:53.253Z,98800.53
2023-07-27T09:34:21.896Z,98807.69
2023-07-27T09:36:49.700Z,98807.75
2023-07-27T09:39:17.681Z,98803.59
2023-07-27T09:41:46.104Z,98807.84
2023-07-27T09:44:16.593Z,98803.31
2023-07-27T09:46:46.107Z,98803.13
2023-07-27T09:49:14.347Z,98806.81
2023-07-27T09:51:42.320Z,98797.06
2023-07-27T09:54:10.366Z,98799.31
2023-07-27T09:56:39.565Z,98801.97
2023-07-27T09:59:08.195Z,98805.97
2023-07-27T10:01:37.650Z,98805.59
2023-07-27T10:04:05.882Z,98800.94
2023-07-27T10:06:34.234Z,98798.38
2023-07-27T10:09:02.323Z,98802.22
2023-07-27T10:11:31.420Z,98800.88
2023-07-27T10:13:59.633Z,98801.53
2023-07-27T10:16:29.252Z,98793.69
2023-07-27T10:18:58.546Z,98800.69
2023-07-27T10:21:28.281Z,98706.72
2023-07-27T10:23:57.886Z,98758.28
2023-07-27T10:26:53.313Z,98788.56
2023-07-27T10:29:21.975Z,98791.91
2023-07-27T10:32:02.188Z,98786.50
2023-07-27T10:34:36.885Z,98783.94
2023-07-27T10:37:09.554Z,98724.84
2023-07-27T10:39:43.638Z,98785.91
2023-07-27T10:42:13.401Z,98783.44
2023-07-27T10:44:42.612Z,98755.09
2023-07-27T10:47:10.685Z,98786.81
2023-07-27T10:49:43.499Z,98763.66
2023-07-27T10:52:12.104Z,98777.13
2023-07-27T10:54:40.845Z,98791.34
2023-07-27T10:57:09.108Z,98787.13
2023-07-27T10:59:38.884Z,98763.34
2023-07-27T11:02:08.482Z,98786.84
2023-07-27T11:04:36.758Z,98785.34
2023-07-27T11:07:06.560Z,98776.88
2023-07-27T11:09:34.669Z,98781.81
2023-07-27T11:12:03.080Z,98783.81
2023-07-27T11:14:31.207Z,98746.28
2023-07-27T11:16:59.352Z,98771.41
2023-07-27T11:19:47.319Z,98758.09
2023-07-27T11:22:17.082Z,98776.66
2023-07-27T11:24:45.226Z,98769.50
2023-07-27T11:27:13.970Z,98764.91
2023-07-27T11:29:44.588Z,98757.00
2023-07-27T11:32:12.782Z,98760.19
2023-07-27T11:34:41.893Z,98743.41
2023-07-27T11:37:09.817Z,98769.50
2023-07-27T11:39:39.446Z,98760.03
2023-07-27T11:42:12.081Z,98766.78
2023-07-27T11:44:40.746Z,98762.72
2023-07-27T11:47:09.240Z,98741.97
2023-07-27T11:49:37.155Z,98754.88
2023-07-27T11:52:08.344Z,98768.66
2023-07-27T11:54:42.168Z,98773.53
2023-07-27T11:57:10.677Z,98774.91
2023-07-27T11:59:39.185Z,98778.22
2023-07-27T12:02:07.396Z,98682.03
2023-07-27T12:04:35.438Z,98718.88
2023-07-27T12:07:03.741Z,98517.72
2023-07-27T12:09:32.684Z,98682.66
2023-07-27T12:12:03.115Z,98758.28
2023-07-27T12:14:34.697Z,98489.19
2023-07-27T12:25:38.217Z,98759.06
2023-07-27T12:27:48.561Z,98753.41
2023-07-27T12:32:47.262Z,98761.69
2023-07-27T12:37:48.524Z,98754.31
2023-07-27T12:40:16.610Z,98762.94
2023-07-27T12:42:44.401Z,98767.00
2023-07-27T12:45:14.990Z,98760.69
2023-07-27T12:47:45.123Z,98765.84
2023-07-27T12:50:14.128Z,98767.63
2023-07-27T12:52:42.431Z,98782.13
2023-07-27T12:55:10.838Z,98770.31
2023-07-27T12:57:38.674Z,98767.22
2023-07-27T13:00:09.431Z,98769.47
2023-07-27T13:02:38.636Z,98769.22
2023-07-27T13:05:13.362Z,98776.16
2023-07-27T13:07:44.717Z,98770.38
2023-07-27T13:10:12.561Z,98765.69
2023-07-27T13:12:40.366Z,98770.34
2023-07-27T13:15:08.994Z,98776.25
2023-07-27T13:17:40.930Z,98773.25
2023-07-27T13:20:10.524Z,98788.69
2023-07-27T13:22:38.650Z,98783.66
2023-07-27T13:25:07.208Z,98782.94
2023-07-27T13:27:35.107Z,98774.06
2023-07-27T13:30:05.513Z,98771.88
2023-07-27T13:32:33.728Z,98778.44
2023-07-27T13:35:03.163Z,98774.81
2023-07-27T13:37:33.327Z,98768.25
2023-07-27T13:40:01.277Z,98770.34
2023-07-27T13:42:29.077Z,98774.22
2023-07-27T13:44:56.950Z,98768.97
2023-07-27T13:47:24.870Z,98766.31
2023-07-27T13:49:52.679Z,98763.22
2023-07-27T13:52:21.917Z,98768.25
2023-07-27T13:54:49.667Z,98767.28
2023-07-27T13:57:17.514Z,98782.06
2023-07-27T13:59:45.206Z,98770.34
2023-07-27T14:02:13.252Z,98767.00
2023-07-27T14:04:41.046Z,98770.78
2023-07-27T14:07:08.894Z,98778.13
2023-07-27T14:09:38.194Z,98770.88
2023-07-27T14:12:06.869Z,98772.69
2023-07-27T14:14:34.628Z,98760.75
2023-07-27T14:17:02.377Z,98774.81
2023-07-27T14:19:30.335Z,98770.34
2023-07-27T14:21:58.131Z,98766.09
2023-07-27T14:24:25.865Z,98764.00
2023-07-27T14:26:55.157Z,98767.53
2023-07-27T14:29:25.093Z,98763.91
2023-07-27T14:31:54.096Z,98777.00
2023-07-27T14:34:21.998Z,98774.31
2023-07-27T14:36:49.808Z,98763.03
2023-07-27T14:39:17.617Z,98777.09
2023-07-27T14:41:45.451Z,98764.25
2023-07-27T14:44:15.671Z,98772.63
2023-07-27T14:46:43.388Z,98775.28
2023-07-27T14:49:11.255Z,98765.59
2023-07-27T14:51:39.092Z,98767.00
2023-07-27T14:54:09.968Z,98786.25
2023-07-27T14:56:37.908Z,98783.44
2023-07-27T14:59:09.471Z,98780.13
2023-07-27T15:06:43.778Z,98780.59
2023-07-27T15:09:11.840Z,98777.94
2023-07-27T15:11:39.733Z,98773.34
2023-07-27T15:14:07.662Z,98773.69
2023-07-27T15:16:35.812Z,98785.19
2023-07-27T15:19:05.295Z,98778.25
2023-07-27T15:21:33.132Z,98782.84
2023-07-27T15:24:00.937Z,98783.59
2023-07-27T15:26:30.639Z,98790.13
2023-07-27T15:28:58.434Z,98793.94
2023-07-27T15:31:27.096Z,98787.00
2023-07-27T15:33:54.857Z,98787.97
2023-07-27T15:36:24.057Z,98778.59
2023-07-27T15:38:51.969Z,98788.31
2023-07-27T15:41:19.760Z,98778.75
2023-07-27T15:43:47.597Z,98799.19
2023-07-27T15:46:16.054Z,98789.91
2023-07-27T15:48:44.151Z,98788.75
2023-07-27T15:51:11.892Z,98789.81
2023-07-27T15:53:42.691Z,98795.69
2023-07-27T15:56:10.432Z,98798.78
2023-07-27T15:58:38.571Z,98801.75
2023-07-27T16:01:06.547Z,98798.44
2023-07-27T16:03:34.519Z,98793.72
2023-07-27T16:06:05.579Z,98796.94
2023-07-27T16:08:33.364Z,98808.13
2023-07-27T16:11:02.429Z,98807.28
2023-07-27T16:13:30.203Z,98796.66
2023-07-27T16:15:58.181Z,98803.56
2023-07-27T16:18:26.021Z,98803.44
2023-07-27T16:20:53.774Z,98801.84
2023-07-27T16:23:21.648Z,98808.78
2023-07-27T16:25:49.538Z,98800.69
2023-07-27T16:28:18.942Z,98718.00
2023-07-27T16:30:46.840Z,98779.75
2023-07-27T16:33:14.596Z,98801.97
2023-07-27T16:35:44.400Z,98803.56
2023-07-27T16:38:12.325Z,98800.06
2023-07-27T16:40:40.235Z,98805.78
2023-07-27T16:43:08.050Z,98805.59
2023-07-27T16:45:40.340Z,98798.78
2023-07-27T16:48:08.219Z,98786.09
2023-07-27T16:50:36.983Z,98803.03
2023-07-27T16:53:04.912Z,98811.13
2023-07-27T16:55:34.496Z,98806.66
2023-07-27T16:58:02.412Z,98800.69
2023-07-27T17:00:30.196Z,98802.47
2023-07-27T17:02:59.455Z,98801.75
2023-07-27T17:05:27.337Z,98802.94
2023-07-27T17:07:55.234Z,98809.22
2023-07-27T17:10:23.011Z,98744.72
2023-07-27T17:12:50.875Z,98783.59
2023-07-27T17:15:18.811Z,98799.59
2023-07-27T17:17:46.693Z,98802.34
2023-07-27T17:20:18.977Z,98805.88
2023-07-27T17:22:46.773Z,98794.56
2023-07-27T17:25:14.568Z,98794.78
2023-07-27T17:27:43.722Z,98794.56
2023-07-27T17:30:12.980Z,98799.78
2023-07-27T17:32:42.124Z,98797.88
2023-07-27T17:35:11.350Z,98783.94
2023-07-27T17:37:40.550Z,98798.06
2023-07-27T17:40:09.870Z,98801.69
2023-07-27T17:42:37.638Z,98789.88
2023-07-27T17:45:06.236Z,98795.94
2023-07-27T17:47:34.041Z,98812.56
2023-07-27T17:50:02.039Z,98785.41
2023-07-27T17:52:29.955Z,98804.16
2023-07-27T17:54:59.058Z,98801.81
2023-07-27T17:57:27.107Z,98801.59
2023-07-27T17:59:55.231Z,98699.47
2023-07-27T18:02:23.461Z,98810.84
2023-07-27T18:07:28.499Z,98809.22
2023-07-27T18:09:56.451Z,98812.09
2023-07-27T18:12:25.857Z,98821.78
2023-07-27T18:14:53.762Z,98815.72
2023-07-27T18:17:24.302Z,98807.34
2023-07-27T18:19:52.197Z,98813.56
2023-07-27T18:22:20.277Z,98818.88
2023-07-27T18:24:48.587Z,98808.53
2023-07-27T18:27:16.497Z,98817.28
2023-07-27T18:29:46.885Z,98822.63
2023-07-27T18:32:14.848Z,98821.00
2023-07-27T18:34:42.905Z,98818.25
2023-07-27T18:37:13.853Z,98802.91
2023-07-27T18:39:41.948Z,98808.53
2023-07-27T18:42:09.987Z,98809.41
2023-07-27T18:44:37.834Z,98819.31
2023-07-27T18:47:07.575Z,98817.59
2023-07-27T18:49:35.682Z,98816.00
2023-07-27T18:52:03.720Z,98812.28
2023-07-27T18:54:31.709Z,98812.47
2023-07-27T18:56:59.629Z,98812.47
2023-07-27T18:59:27.631Z,98806.22
2023-07-27T19:01:55.448Z,98814.38
2023-07-27T19:04:24.773Z,98815.91
2023-07-27T19:06:53.830Z,98811.72
2023-07-27T19:09:21.764Z,98814.19
2023-07-27T19:11:49.649Z,98820.44
2023-07-27T19:14:19.798Z,98818.75
2023-07-27T19:16:47.993Z,98793.09
2023-07-27T19:19:15.960Z,98816.28
2023-07-27T19:21:45.716Z,98812.16
2023-07-27T19:24:15.869Z,98831.50
2023-07-27T19:26:44.077Z,98828.84
2023-07-27T19:29:13.074Z,98827.31
2023-07-27T19:31:40.975Z,98781.16
2023-07-27T19:34:09.086Z,98826.59
2023-07-27T19:36:37.458Z,98839.13
2023-07-27T19:39:06.815Z,98839.13
2023-07-27T19:41:34.678Z,98837.63
2023-07-27T19:44:03.073Z,98840.09
2023-07-27T19:46:30.956Z,98826.78
2023-07-27T19:48:58.836Z,98804.19
2023-07-27T19:51:26.947Z,98861.53
2023-07-27T19:53:54.926Z,98850.91
2023-07-27T19:56:24.541Z,98851.78
2023-07-27T19:58:52.927Z,98850.06
2023-07-27T20:01:21.011Z,98852.72
2023-07-27T20:03:49.616Z,98852.72
2023-07-27T20:06:17.754Z,98854.44
2023-07-27T20:08:48.350Z,98850.91
2023-07-27T20:11:17.595Z,98851.88
2023-07-27T20:13:47.541Z,98860.13
2023-07-27T20:16:16.702Z,98847.72
2023-07-27T20:18:46.649Z,98842.47
2023-07-27T20:21:15.096Z,98842.47
2023-07-27T20:23:42.997Z,98846.75
2023-07-27T20:26:11.207Z,98852.72
2023-07-27T20:28:39.317Z,98850.91
2023-07-27T20:31:09.816Z,98846.75
2023-07-27T20:33:37.919Z,98851.78
2023-07-27T20:36:06.248Z,98840.38
2023-07-27T20:38:34.451Z,98845.88
2023-07-27T20:41:05.380Z,98837.44
2023-07-27T20:43:33.438Z,98844.09
2023-07-27T20:46:05.237Z,98839.00
2023-07-27T20:48:37.012Z,98841.72
2023-07-27T20:51:06.560Z,98837.94
2023-07-27T20:53:35.289Z,98853.03
2023-07-27T20:56:03.166Z,98856.44
2023-07-27T20:58:30.971Z,98853.88
2023-07-27T21:01:01.873Z,98813.72
2023-07-27T21:03:31.660Z,98849.63
2023-07-27T21:06:02.546Z,98829.50
2023-07-27T21:08:30.402Z,98849.81
2023-07-27T21:10:58.254Z,98860.44
2023-07-27T21:13:26.077Z,98852.63
2023-07-27T21:16:00.897Z,98851.88
2023-07-27T21:18:28.875Z,98856.47
2023-07-27T21:20:56.585Z,98842.59
2023-07-27T21:23:25.914Z,98849.53
2023-07-27T21:25:58.477Z,98848.47
2023-07-27T21:28:26.441Z,98794.50
2023-07-27T21:30:57.238Z,98834.53
2023-07-27T21:33:28.531Z,98843.16
2023-07-27T21:35:57.031Z,98837.84
2023-07-27T21:38:26.200Z,98842.38
2023-07-27T21:40:54.105Z,98826.63
2023-07-27T21:43:21.923Z,98832.69
2023-07-27T21:45:49.784Z,98827.59
2023-07-27T21:48:17.770Z,98833.66
2023-07-27T21:50:45.860Z,98776.25
2023-07-27T21:53:13.616Z,98834.81
2023-07-27T21:55:42.732Z,98827.97
2023-07-27T21:58:10.567Z,98836.06
2023-07-27T22:00:38.367Z,98799.56
2023-07-27T22:03:06.314Z,98836.44
2023-07-27T22:05:35.172Z,98832.38
2023-07-27T22:08:03.555Z,98835.69
2023-07-27T22:10:31.411Z,98835.91
2023-07-27T22:13:03.119Z,98839.47
2023-07-27T22:15:31.010Z,98843.00
2023-07-27T22:17:58.796Z,98840.44
2023-07-27T22:20:27.996Z,98837.91
2023-07-27T22:22:55.731Z,98832.22
2023-07-27T22:25:23.718Z,98845.22
2023-07-27T22:27:51.472Z,98838.28
2023-07-27T22:30:21.131Z,98816.84
2023-07-27T22:32:48.978Z,98796.53
2023-07-27T22:35:16.906Z,98825.47
2023-07-27T22:37:44.840Z,98821.78
2023-07-27T22:40:13.016Z,98837.81
2023-07-27T22:42:40.780Z,98814.00
2023-07-27T22:45:09.768Z,98788.75
2023-07-27T22:47:39.003Z,98814.06
2023-07-27T22:50:07.626Z,98830.97
2023-07-27T22:52:36.445Z,98824.22
2023-07-27T22:55:04.352Z,98825.56
2023-07-27T22:57:32.169Z,98799.88
2023-07-27T22:59:59.858Z,98803.34
2023-07-27T23:02:27.713Z,98819.31
2023-07-27T23:04:56.833Z,98814.00
2023-07-27T23:07:24.709Z,98811.25
2023-07-27T23:09:52.480Z,98810.28
2023-07-27T23:12:20.386Z,98810.22
2023-07-27T23:14:48.106Z,98819.00
2023-07-27T23:17:16.056Z,98830.31
2023-07-27T23:19:44.096Z,98825.00
2023-07-27T23:22:13.205Z,98825.94
2023-07-27T23:24:43.108Z,98816.16
2023-07-27T23:27:10.873Z,98770.38
2023-07-27T23:29:38.614Z,98827.84
2023-07-27T23:32:07.072Z,98801.56
2023-07-27T23:34:34.821Z,98833.16
2023-07-27T23:37:05.157Z,98782.47
2023-07-27T23:39:34.267Z,98836.78
2023-07-27T23:42:02.052Z,98829.94
2023-07-27T23:44:29.776Z,98826.91
2023-07-27T23:46:57.557Z,98840.19
2023-07-27T23:49:25.274Z,98834.19
2023-07-27T23:51:53.347Z,98835.25
2023-07-27T23:54:21.133Z,98834.56
2023-07-27T23:56:50.375Z,98846.81
2023-07-27T23:59:18.123Z,98836.94
